Time;durP1;ratioP1;P1;durP2;ratioP2;P2;SDS_P1;SDS_P2;PMS_P1;PMS_P2;Temp;Humidity;BMP_temperature;BMP_pressure;BME280_temperature;BME280_humidity;BME280_pressure;Samples;Min_cycle;Max_cycle;Signal;HPM_P1;HPM_P2
2023/06/25 00:01:12;;;;;;;4.00;3.70;;;;;;;;;;4774607;29;20071;-75
2023/06/25 00:03:39;;;;;;;3.75;3.55;;;;;;;;;;4762619;30;20142;-76
2023/06/25 00:06:08;;;;;;;4.00;3.70;;;;;;;;;;4763241;30;20081;-76
2023/06/25 00:08:36;;;;;;;3.92;3.63;;;;;;;;;;4763028;30;20514;-75
2023/06/25 00:11:04;;;;;;;4.10;3.70;;;;;;;;;;4763760;30;20101;-76
2023/06/25 00:13:31;;;;;;;3.72;3.40;;;;;;;;;;4761606;30;20058;-76
2023/06/25 00:15:59;;;;;;;3.22;3.03;;;;;;;;;;4758699;30;20574;-75
2023/06/25 00:18:26;;;;;;;3.90;3.60;;;;;;;;;;4763062;29;20062;-76
2023/06/25 00:20:54;;;;;;;3.88;3.58;;;;;;;;;;4761473;30;20507;-76
2023/06/25 00:23:22;;;;;;;4.25;3.80;;;;;;;;;;4761359;30;20066;-76
2023/06/25 00:25:49;;;;;;;3.40;3.20;;;;;;;;;;4762395;30;20050;-76
2023/06/25 00:28:17;;;;;;;3.80;3.50;;;;;;;;;;4761378;30;20526;-75
2023/06/25 00:30:44;;;;;;;4.38;3.90;;;;;;;;;;4760619;30;20507;-75
2023/06/25 00:33:12;;;;;;;4.38;3.55;;;;;;;;;;4762443;29;20052;-76
2023/06/25 00:35:48;;;;;;;4.10;3.80;;;;;;;;;;4761875;30;20639;-77
2023/06/25 00:38:16;;;;;;;3.67;3.38;;;;;;;;;;4763645;30;20103;-77
2023/06/25 00:40:43;;;;;;;3.85;3.55;;;;;;;;;;4759867;30;20071;-76
2023/06/25 00:43:14;;;;;;;4.15;3.80;;;;;;;;;;4757820;30;20090;-76
2023/06/25 00:45:45;;;;;;;3.70;3.40;;;;;;;;;;4762151;30;20101;-77
2023/06/25 00:48:12;;;;;;;3.30;3.10;;;;;;;;;;4760997;30;20047;-76
2023/06/25 00:50:40;;;;;;;3.35;3.05;;;;;;;;;;4761531;30;20057;-76
2023/06/25 00:53:09;;;;;;;3.53;3.22;;;;;;;;;;4756137;30;20044;-77
2023/06/25 00:55:36;;;;;;;3.70;3.50;;;;;;;;;;4757114;30;20056;-76
2023/06/25 00:58:07;;;;;;;3.92;3.63;;;;;;;;;;4761607;30;20151;-76
2023/06/25 01:00:35;;;;;;;3.85;3.53;;;;;;;;;;4761556;30;20052;-76
2023/06/25 01:03:12;;;;;;;3.60;3.33;;;;;;;;;;4764671;24;20233;-75
2023/06/25 01:05:45;;;;;;;4.18;3.78;;;;;;;;;;4744828;30;20052;-76
2023/06/25 01:08:15;;;;;;;3.92;3.53;;;;;;;;;;4742442;30;20133;-75
2023/06/25 01:10:43;;;;;;;3.75;3.45;;;;;;;;;;4737163;30;20135;-75
2023/06/25 01:13:11;;;;;;;3.75;3.45;;;;;;;;;;4726587;30;20048;-76
2023/06/25 01:15:38;;;;;;;3.65;3.35;;;;;;;;;;4725252;30;20548;-76
2023/06/25 01:18:06;;;;;;;3.45;3.25;;;;;;;;;;4727769;30;20060;-76
2023/06/25 01:20:38;;;;;;;3.83;3.53;;;;;;;;;;4727366;30;20430;-78
2023/06/25 01:23:05;;;;;;;3.90;3.60;;;;;;;;;;4727113;30;20048;-75
2023/06/25 01:25:38;;;;;;;4.13;3.80;;;;;;;;;;4727710;30;20475;-78
2023/06/25 01:28:06;;;;;;;3.72;3.40;;;;;;;;;;4740333;30;20044;-75
2023/06/25 01:30:33;;;;;;;3.90;3.60;;;;;;;;;;4723255;30;20049;-77
2023/06/25 01:33:01;;;;;;;3.97;3.70;;;;;;;;;;4724627;30;20059;-75
2023/06/25 01:35:29;;;;;;;4.03;3.72;;;;;;;;;;4725924;30;20436;-76
2023/06/25 01:37:59;;;;;;;3.88;3.50;;;;;;;;;;4725354;30;20052;-78
2023/06/25 01:40:26;;;;;;;4.00;3.70;;;;;;;;;;4725584;30;20507;-76
2023/06/25 01:42:55;;;;;;;3.60;3.35;;;;;;;;;;4725636;30;20071;-76
2023/06/25 01:45:22;;;;;;;3.20;3.00;;;;;;;;;;4727341;30;20055;-75
2023/06/25 01:47:50;;;;;;;3.53;3.33;;;;;;;;;;4723793;30;20111;-75
2023/06/25 01:50:17;;;;;;;3.28;3.08;;;;;;;;;;4727154;30;20056;-77
2023/06/25 01:52:45;;;;;;;3.22;3.03;;;;;;;;;;4739457;30;20053;-75
2023/06/25 01:55:12;;;;;;;4.00;3.70;;;;;;;;;;4739810;30;20183;-76
2023/06/25 01:57:40;;;;;;;4.13;3.78;;;;;;;;;;4722109;30;20072;-76
2023/06/25 02:00:11;;;;;;;3.88;3.50;;;;;;;;;;4723307;30;20056;-75
2023/06/25 02:02:44;;;;;;;4.22;3.92;;;;;;;;;;4741575;30;20068;-77
2023/06/25 02:05:12;;;;;;;4.15;3.85;;;;;;;;;;4744257;30;20060;-77
2023/06/25 02:07:39;;;;;;;3.95;3.65;;;;;;;;;;4748375;30;20064;-76
2023/06/25 02:10:07;;;;;;;4.20;3.90;;;;;;;;;;4725799;30;20496;-76
2023/06/25 02:12:34;;;;;;;4.10;3.78;;;;;;;;;;4725449;30;20063;-75
2023/06/25 02:15:02;;;;;;;4.15;3.75;;;;;;;;;;4738725;30;20053;-75
2023/06/25 02:17:30;;;;;;;4.10;3.80;;;;;;;;;;4729031;30;20060;-76
2023/06/25 02:19:58;;;;;;;4.03;3.72;;;;;;;;;;4729055;30;20521;-75
2023/06/25 02:22:25;;;;;;;5.40;4.80;;;;;;;;;;4728534;30;20139;-75
2023/06/25 02:24:53;;;;;;;4.25;3.85;;;;;;;;;;4743776;30;20686;-75
2023/06/25 02:27:20;;;;;;;4.55;3.80;;;;;;;;;;4726889;30;20064;-75
2023/06/25 02:29:48;;;;;;;4.15;3.85;;;;;;;;;;4735162;30;20056;-76
2023/06/25 02:32:16;;;;;;;4.45;4.13;;;;;;;;;;4728297;30;20706;-77
2023/06/25 02:34:43;;;;;;;4.38;4.07;;;;;;;;;;4741261;30;20053;-75
2023/06/25 02:37:14;;;;;;;4.35;4.00;;;;;;;;;;4729259;30;20063;-76
2023/06/25 02:39:43;;;;;;;4.25;3.85;;;;;;;;;;4726878;30;20065;-76
2023/06/25 02:42:10;;;;;;;7.70;4.22;;;;;;;;;;4727251;30;20117;-76
2023/06/25 02:44:38;;;;;;;4.50;4.10;;;;;;;;;;4741365;30;20411;-76
2023/06/25 02:47:05;;;;;;;4.40;4.10;;;;;;;;;;4727209;30;20471;-77
2023/06/25 02:49:33;;;;;;;4.10;3.80;;;;;;;;;;4738368;30;20056;-76
2023/06/25 02:52:01;;;;;;;4.32;4.00;;;;;;;;;;4726189;30;20143;-75
2023/06/25 02:54:28;;;;;;;4.45;4.05;;;;;;;;;;4726773;30;20496;-75
2023/06/25 02:56:57;;;;;;;4.30;4.00;;;;;;;;;;4729592;30;20850;-75
2023/06/25 02:59:25;;;;;;;4.85;4.20;;;;;;;;;;4728952;30;20554;-75
2023/06/25 03:01:53;;;;;;;4.10;3.75;;;;;;;;;;4742325;30;20052;-75
2023/06/25 03:04:21;;;;;;;4.15;3.85;;;;;;;;;;4741562;30;20504;-75
2023/06/25 03:06:48;;;;;;;4.40;4.03;;;;;;;;;;4727960;30;20052;-75
2023/06/25 03:09:16;;;;;;;4.35;4.00;;;;;;;;;;4741553;30;20045;-75
2023/06/25 03:11:43;;;;;;;3.90;3.60;;;;;;;;;;4727655;30;20056;-77
2023/06/25 03:14:11;;;;;;;4.38;4.07;;;;;;;;;;4727951;30;20048;-75
2023/06/25 03:16:58;;;;;;;4.75;4.35;;;;;;;;;;4725539;30;20549;-75
2023/06/25 03:19:26;;;;;;;5.07;4.65;;;;;;;;;;4729879;30;20060;-77
2023/06/25 03:21:53;;;;;;;5.22;4.25;;;;;;;;;;4727747;30;20052;-75
2023/06/25 03:24:20;;;;;;;5.40;4.43;;;;;;;;;;4726270;30;20472;-75
2023/06/25 03:26:49;;;;;;;4.63;4.22;;;;;;;;;;4747847;30;20063;-75
2023/06/25 03:29:17;;;;;;;5.43;4.93;;;;;;;;;;4740770;30;20055;-75
2023/06/25 03:31:45;;;;;;;5.15;4.75;;;;;;;;;;4724912;30;20093;-76
2023/06/25 03:34:15;;;;;;;4.88;4.47;;;;;;;;;;4721818;30;20056;-75
2023/06/25 03:36:43;;;;;;;4.35;3.95;;;;;;;;;;4721524;30;20060;-76
2023/06/25 03:39:10;;;;;;;4.63;4.25;;;;;;;;;;4739503;30;20148;-76
2023/06/25 03:41:38;;;;;;;4.60;4.30;;;;;;;;;;4722422;30;20053;-75
2023/06/25 03:44:05;;;;;;;4.88;4.47;;;;;;;;;;4743567;30;20059;-76
2023/06/25 03:46:34;;;;;;;4.70;4.32;;;;;;;;;;4753360;30;20048;-77
2023/06/25 03:49:02;;;;;;;8.05;4.60;;;;;;;;;;4752109;30;20064;-78
2023/06/25 03:51:32;;;;;;;4.93;4.50;;;;;;;;;;4723430;30;20143;-75
2023/06/25 03:53:59;;;;;;;4.50;4.10;;;;;;;;;;4730358;30;20585;-76
2023/06/25 03:56:27;;;;;;;4.55;4.15;;;;;;;;;;4728576;30;20092;-75
2023/06/25 03:58:54;;;;;;;4.22;3.83;;;;;;;;;;4728140;30;20151;-75
2023/06/25 04:01:22;;;;;;;4.60;4.20;;;;;;;;;;4725934;30;20068;-76
2023/06/25 04:03:49;;;;;;;4.03;3.72;;;;;;;;;;4725579;30;20415;-75
2023/06/25 04:06:17;;;;;;;4.00;3.70;;;;;;;;;;4727707;30;20667;-75
2023/06/25 04:08:44;;;;;;;4.30;3.90;;;;;;;;;;4741406;30;20095;-76
2023/06/25 04:11:12;;;;;;;3.92;3.63;;;;;;;;;;4735579;30;20053;-77
2023/06/25 04:13:40;;;;;;;3.72;3.42;;;;;;;;;;4725702;30;20064;-76
2023/06/25 04:16:09;;;;;;;4.00;3.70;;;;;;;;;;4724782;30;20052;-76
2023/06/25 04:18:39;;;;;;;4.20;3.90;;;;;;;;;;4740030;30;20056;-75
2023/06/25 04:21:07;;;;;;;4.05;3.75;;;;;;;;;;4724192;30;20175;-76
2023/06/25 04:23:34;;;;;;;3.85;3.60;;;;;;;;;;4726521;30;20143;-75
2023/06/25 04:26:02;;;;;;;4.35;3.95;;;;;;;;;;4726001;30;20090;-76
2023/06/25 04:28:29;;;;;;;3.80;3.53;;;;;;;;;;4727222;30;20069;-75
2023/06/25 04:30:57;;;;;;;3.88;3.58;;;;;;;;;;4738957;30;20103;-78
2023/06/25 04:33:25;;;;;;;3.80;3.60;;;;;;;;;;4740499;30;20413;-75
2023/06/25 04:35:52;;;;;;;4.03;3.75;;;;;;;;;;4725342;30;20064;-77
2023/06/25 04:38:20;;;;;;;4.40;4.00;;;;;;;;;;4734134;30;20574;-75
2023/06/25 04:40:48;;;;;;;3.95;3.65;;;;;;;;;;4724671;30;20546;-76
2023/06/25 04:43:16;;;;;;;3.60;3.30;;;;;;;;;;4726784;30;20049;-76
2023/06/25 04:45:44;;;;;;;3.35;3.15;;;;;;;;;;4726182;30;20053;-76
2023/06/25 04:48:11;;;;;;;4.10;3.67;;;;;;;;;;4735829;30;20096;-76
2023/06/25 04:50:39;;;;;;;4.40;3.85;;;;;;;;;;4724689;30;20519;-76
2023/06/25 04:53:06;;;;;;;3.50;3.30;;;;;;;;;;4723643;30;20134;-76
2023/06/25 04:55:34;;;;;;;4.00;3.60;;;;;;;;;;4726608;30;20072;-75
2023/06/25 04:58:02;;;;;;;3.63;3.42;;;;;;;;;;4727551;30;20060;-76
2023/06/25 05:00:29;;;;;;;3.67;3.38;;;;;;;;;;4726013;30;20435;-75
2023/06/25 05:02:56;;;;;;;3.53;3.33;;;;;;;;;;4722957;30;20056;-75
2023/06/25 05:05:24;;;;;;;3.38;3.17;;;;;;;;;;4724300;30;20076;-78
2023/06/25 05:07:52;;;;;;;3.55;3.30;;;;;;;;;;4727280;30;20512;-77
2023/06/25 05:10:20;;;;;;;3.20;3.00;;;;;;;;;;4723734;30;20055;-76
2023/06/25 05:12:47;;;;;;;3.88;3.63;;;;;;;;;;4727495;30;20056;-76
2023/06/25 05:15:15;;;;;;;3.90;3.60;;;;;;;;;;4725732;30;20063;-76
2023/06/25 05:17:42;;;;;;;3.80;3.55;;;;;;;;;;4727211;30;20110;-76
2023/06/25 05:20:10;;;;;;;4.07;3.78;;;;;;;;;;4740599;30;20060;-76
2023/06/25 05:22:37;;;;;;;4.05;3.75;;;;;;;;;;4726651;30;20645;-76
2023/06/25 05:25:05;;;;;;;3.45;3.25;;;;;;;;;;4725093;30;20755;-77
2023/06/25 05:27:33;;;;;;;3.25;3.05;;;;;;;;;;4745195;30;20159;-76
2023/06/25 05:30:00;;;;;;;4.10;3.58;;;;;;;;;;4732729;30;20064;-75
2023/06/25 05:32:28;;;;;;;3.20;3.00;;;;;;;;;;4731187;30;20052;-75
2023/06/25 05:34:55;;;;;;;3.53;3.33;;;;;;;;;;4727996;30;20412;-75
2023/06/25 05:37:23;;;;;;;3.10;2.90;;;;;;;;;;4717535;30;20051;-75
2023/06/25 05:39:50;;;;;;;3.83;3.53;;;;;;;;;;4720759;30;20106;-75
2023/06/25 05:42:18;;;;;;;3.60;3.30;;;;;;;;;;4723485;30;20951;-75
2023/06/25 05:44:45;;;;;;;3.83;3.53;;;;;;;;;;4719355;30;20049;-76
2023/06/25 05:47:13;;;;;;;4.45;4.13;;;;;;;;;;4720940;30;20519;-77
2023/06/25 05:49:40;;;;;;;3.33;3.13;;;;;;;;;;4735904;30;20547;-75
2023/06/25 05:52:08;;;;;;;3.65;3.45;;;;;;;;;;4721762;30;20065;-75
2023/06/25 05:54:35;;;;;;;3.50;3.30;;;;;;;;;;4719610;30;20052;-76
2023/06/25 05:57:02;;;;;;;4.05;3.75;;;;;;;;;;4722251;30;20512;-75
2023/06/25 05:59:30;;;;;;;4.20;3.90;;;;;;;;;;4721760;30;20546;-76
2023/06/25 06:01:57;;;;;;;4.18;3.88;;;;;;;;;;4723935;30;20414;-78
2023/06/25 06:04:25;;;;;;;4.57;4.18;;;;;;;;;;4719319;30;20065;-76
2023/06/25 06:06:52;;;;;;;3.88;3.58;;;;;;;;;;4721326;30;20478;-78
2023/06/25 06:09:20;;;;;;;3.97;3.67;;;;;;;;;;4722931;30;20061;-78
2023/06/25 06:11:47;;;;;;;4.00;3.70;;;;;;;;;;4719093;30;20091;-76
2023/06/25 06:14:17;;;;;;;3.75;3.45;;;;;;;;;;4713699;30;20049;-78
2023/06/25 06:16:45;;;;;;;4.03;3.70;;;;;;;;;;4715603;30;20531;-76
2023/06/25 06:19:15;;;;;;;3.90;3.60;;;;;;;;;;4721832;30;20488;-78
2023/06/25 06:22:03;;;;;;;3.92;3.63;;;;;;;;;;4733643;30;20044;-79
2023/06/25 06:24:31;;;;;;;3.38;3.17;;;;;;;;;;4724503;30;20059;-78
2023/06/25 06:26:59;;;;;;;3.70;3.40;;;;;;;;;;4723640;30;20049;-78
2023/06/25 06:29:27;;;;;;;3.55;3.35;;;;;;;;;;4728001;30;20489;-76
2023/06/25 06:31:54;;;;;;;3.58;3.28;;;;;;;;;;4715654;30;20051;-76
2023/06/25 06:34:22;;;;;;;4.10;3.45;;;;;;;;;;4727302;30;20049;-78
2023/06/25 06:36:50;;;;;;;3.97;3.70;;;;;;;;;;4727194;30;20065;-76
2023/06/25 06:39:18;;;;;;;4.45;4.05;;;;;;;;;;4721745;30;20060;-77
2023/06/25 06:41:45;;;;;;;4.00;3.70;;;;;;;;;;4718179;30;20143;-78
2023/06/25 06:44:16;;;;;;;3.60;3.38;;;;;;;;;;4721321;30;20060;-77
2023/06/25 06:46:44;;;;;;;3.67;3.38;;;;;;;;;;4721515;30;20044;-76
2023/06/25 06:49:12;;;;;;;3.38;3.10;;;;;;;;;;4719439;30;20045;-77
2023/06/25 06:51:41;;;;;;;3.88;3.58;;;;;;;;;;4723662;30;20467;-78
2023/06/25 06:54:08;;;;;;;3.50;3.30;;;;;;;;;;4724299;30;20084;-76
2023/06/25 06:56:37;;;;;;;4.22;3.92;;;;;;;;;;4722148;30;20065;-80
2023/06/25 06:59:05;;;;;;;3.83;3.63;;;;;;;;;;4724409;30;20143;-76
2023/06/25 07:01:34;;;;;;;3.47;3.28;;;;;;;;;;4726683;30;20060;-77
2023/06/25 07:04:01;;;;;;;3.40;3.20;;;;;;;;;;4718905;30;20124;-76
2023/06/25 07:06:29;;;;;;;3.10;2.90;;;;;;;;;;4725130;30;20052;-77
2023/06/25 07:08:56;;;;;;;3.80;3.50;;;;;;;;;;4721090;30;20052;-77
2023/06/25 07:11:24;;;;;;;3.30;3.10;;;;;;;;;;4734465;30;20116;-77
2023/06/25 07:13:51;;;;;;;3.30;3.00;;;;;;;;;;4729765;30;20061;-77
2023/06/25 07:16:18;;;;;;;3.33;3.13;;;;;;;;;;4724855;30;20052;-77
2023/06/25 07:18:46;;;;;;;3.67;3.47;;;;;;;;;;4723021;30;20090;-76
2023/06/25 07:21:13;;;;;;;4.07;3.78;;;;;;;;;;4725516;30;20060;-78
2023/06/25 07:23:41;;;;;;;3.42;3.22;;;;;;;;;;4723974;30;20056;-76
2023/06/25 07:26:08;;;;;;;3.88;3.58;;;;;;;;;;4723688;30;20056;-76
2023/06/25 07:28:36;;;;;;;3.33;3.13;;;;;;;;;;4727869;30;20052;-76
2023/06/25 07:31:04;;;;;;;4.32;4.00;;;;;;;;;;4725539;30;20068;-77
2023/06/25 07:33:32;;;;;;;3.67;3.38;;;;;;;;;;4744740;30;20566;-76
2023/06/25 07:35:59;;;;;;;3.28;3.08;;;;;;;;;;4728439;30;20435;-78
2023/06/25 07:38:27;;;;;;;3.30;3.10;;;;;;;;;;4734531;30;20154;-76
2023/06/25 07:40:54;;;;;;;3.60;3.40;;;;;;;;;;4733900;30;20065;-76
2023/06/25 07:43:22;;;;;;;3.40;3.20;;;;;;;;;;4732446;30;20060;-77
2023/06/25 07:45:49;;;;;;;3.60;3.40;;;;;;;;;;4726538;30;20060;-76
2023/06/25 07:48:17;;;;;;;3.45;3.25;;;;;;;;;;4726329;30;20405;-76
2023/06/25 07:50:44;;;;;;;3.50;3.20;;;;;;;;;;4723915;30;20072;-76
2023/06/25 07:53:11;;;;;;;3.53;3.33;;;;;;;;;;4726466;30;20052;-76
2023/06/25 07:55:41;;;;;;;3.10;2.90;;;;;;;;;;4729879;30;20067;-77
2023/06/25 07:58:27;;;;;;;3.08;2.88;;;;;;;;;;4730315;30;20060;-77
2023/06/25 08:00:55;;;;;;;3.60;3.30;;;;;;;;;;4729006;30;20517;-77
2023/06/25 08:03:22;;;;;;;3.75;3.55;;;;;;;;;;4729413;30;20056;-76
2023/06/25 08:05:50;;;;;;;3.58;3.30;;;;;;;;;;4730259;30;20049;-76
2023/06/25 08:08:18;;;;;;;3.60;3.40;;;;;;;;;;4730101;30;20076;-78
2023/06/25 08:10:45;;;;;;;3.67;3.38;;;;;;;;;;4728942;30;20048;-76
2023/06/25 08:13:12;;;;;;;3.75;3.45;;;;;;;;;;4728800;30;20048;-77
2023/06/25 08:15:40;;;;;;;3.20;3.00;;;;;;;;;;4728845;30;20076;-77
2023/06/25 08:18:07;;;;;;;3.58;3.38;;;;;;;;;;4729672;30;20122;-77
2023/06/25 08:20:35;;;;;;;3.45;3.25;;;;;;;;;;4739974;30;20056;-77
2023/06/25 08:23:02;;;;;;;3.40;3.20;;;;;;;;;;4727924;30;20194;-76
2023/06/25 08:25:31;;;;;;;3.83;3.63;;;;;;;;;;4721752;30;20091;-76
2023/06/25 08:27:58;;;;;;;3.75;3.45;;;;;;;;;;4723692;30;20131;-77
2023/06/25 08:30:26;;;;;;;3.35;3.15;;;;;;;;;;4730350;30;20068;-77
2023/06/25 08:32:53;;;;;;;3.30;3.10;;;;;;;;;;4726615;30;20577;-77
2023/06/25 08:35:20;;;;;;;3.45;3.17;;;;;;;;;;4723873;30;20402;-78
2023/06/25 08:37:48;;;;;;;3.47;3.28;;;;;;;;;;4727501;30;20061;-76
2023/06/25 08:40:18;;;;;;;3.53;3.22;;;;;;;;;;4727547;30;20053;-77
2023/06/25 08:42:46;;;;;;;2.92;2.72;;;;;;;;;;4722970;30;20072;-76
2023/06/25 08:45:18;;;;;;;3.35;3.15;;;;;;;;;;4725592;30;20045;-77
2023/06/25 08:47:46;;;;;;;3.70;3.40;;;;;;;;;;4723309;30;20148;-76
2023/06/25 08:50:13;;;;;;;3.28;3.08;;;;;;;;;;4725637;30;20060;-79
2023/06/25 08:52:41;;;;;;;2.90;2.70;;;;;;;;;;4726041;30;20080;-78
2023/06/25 08:55:11;;;;;;;2.70;2.60;;;;;;;;;;4724547;30;20132;-78
2023/06/25 08:57:38;;;;;;;2.95;2.75;;;;;;;;;;4721341;30;20071;-77
2023/06/25 09:00:06;;;;;;;2.97;2.80;;;;;;;;;;4720444;30;20461;-77
2023/06/25 09:02:34;;;;;;;3.28;3.08;;;;;;;;;;4720272;30;20071;-77
2023/06/25 09:05:03;;;;;;;2.80;2.60;;;;;;;;;;4726888;30;20088;-77
2023/06/25 09:07:33;;;;;;;2.65;2.55;;;;;;;;;;4724131;30;20126;-77
2023/06/25 09:10:00;;;;;;;2.97;2.78;;;;;;;;;;4727255;30;20122;-79
2023/06/25 09:12:28;;;;;;;2.53;2.42;;;;;;;;;;4723977;30;20056;-78
2023/06/25 09:14:56;;;;;;;2.58;2.45;;;;;;;;;;4727510;30;20047;-77
2023/06/25 09:17:24;;;;;;;2.70;2.60;;;;;;;;;;4728338;30;20095;-77
2023/06/25 09:19:51;;;;;;;2.58;2.47;;;;;;;;;;4725098;30;20060;-77
2023/06/25 09:22:19;;;;;;;2.72;2.63;;;;;;;;;;4728889;30;20060;-78
2023/06/25 09:24:50;;;;;;;2.42;2.25;;;;;;;;;;4721464;30;20052;-77
2023/06/25 09:27:21;;;;;;;2.58;2.47;;;;;;;;;;4720494;30;20048;-78
2023/06/25 09:29:49;;;;;;;2.50;2.40;;;;;;;;;;4717741;30;20048;-77
2023/06/25 09:32:17;;;;;;;2.60;2.50;;;;;;;;;;4721173;30;20048;-79
2023/06/25 09:34:46;;;;;;;2.60;2.50;;;;;;;;;;4724489;30;20056;-77
2023/06/25 09:37:13;;;;;;;3.22;3.03;;;;;;;;;;4726232;30;20060;-79
2023/06/25 09:39:41;;;;;;;2.75;2.55;;;;;;;;;;4722521;30;20504;-77
2023/06/25 09:42:09;;;;;;;2.60;2.50;;;;;;;;;;4728078;30;20056;-77
2023/06/25 09:44:37;;;;;;;3.13;2.92;;;;;;;;;;4726061;30;20053;-77
2023/06/25 09:47:07;;;;;;;2.67;2.58;;;;;;;;;;4721892;30;20048;-76
2023/06/25 09:49:35;;;;;;;2.78;2.67;;;;;;;;;;4723739;30;20054;-77
2023/06/25 09:52:09;;;;;;;2.80;2.70;;;;;;;;;;4724109;30;20071;-77
2023/06/25 09:54:39;;;;;;;4.30;2.90;;;;;;;;;;4720666;30;20416;-79
2023/06/25 09:57:09;;;;;;;2.60;2.50;;;;;;;;;;4727426;30;20139;-78
2023/06/25 09:59:37;;;;;;;2.60;2.50;;;;;;;;;;4723048;30;20056;-78
2023/06/25 10:02:06;;;;;;;2.70;2.60;;;;;;;;;;4729952;30;20079;-78
2023/06/25 10:04:35;;;;;;;2.90;2.75;;;;;;;;;;4725918;30;20067;-77
2023/06/25 10:07:04;;;;;;;3.17;2.88;;;;;;;;;;4726603;30;20142;-77
2023/06/25 10:09:31;;;;;;;2.83;2.63;;;;;;;;;;4727476;30;20056;-77
2023/06/25 10:11:58;;;;;;;2.33;2.22;;;;;;;;;;4727349;30;20200;-77
2023/06/25 10:14:36;;;;;;;3.03;2.83;;;;;;;;;;4727813;30;20079;-77
2023/06/25 10:17:04;;;;;;;2.70;2.60;;;;;;;;;;4729833;30;20511;-77
2023/06/25 10:19:32;;;;;;;2.53;2.42;;;;;;;;;;4727806;30;20061;-78
2023/06/25 10:22:00;;;;;;;3.05;2.85;;;;;;;;;;4727546;30;20055;-78
2023/06/25 10:24:37;;;;;;;2.67;2.47;;;;;;;;;;4727954;30;20056;-77
2023/06/25 10:27:04;;;;;;;2.50;2.40;;;;;;;;;;4721556;30;20060;-78
2023/06/25 10:29:42;;;;;;;3.00;2.80;;;;;;;;;;4726392;30;20075;-78
2023/06/25 10:32:12;;;;;;;2.80;2.70;;;;;;;;;;4725405;30;20068;-79
2023/06/25 10:34:40;;;;;;;2.92;2.83;;;;;;;;;;4721427;30;20045;-77
2023/06/25 10:37:08;;;;;;;2.70;2.60;;;;;;;;;;4724033;30;20057;-78
2023/06/25 10:39:37;;;;;;;3.08;2.50;;;;;;;;;;4725780;30;20068;-79
2023/06/25 10:42:05;;;;;;;3.15;3.00;;;;;;;;;;4724903;30;20585;-77
2023/06/25 10:44:33;;;;;;;2.60;2.50;;;;;;;;;;4722920;30;20547;-79
2023/06/25 10:47:08;;;;;;;2.35;2.25;;;;;;;;;;4725209;30;20056;-79
2023/06/25 10:49:36;;;;;;;2.78;2.60;;;;;;;;;;4716556;30;21043;-78
2023/06/25 10:52:04;;;;;;;2.70;2.50;;;;;;;;;;4722955;30;20087;-79
2023/06/25 10:54:32;;;;;;;2.50;2.40;;;;;;;;;;4717663;30;20056;-77
2023/06/25 10:57:07;;;;;;;3.15;2.95;;;;;;;;;;4720531;30;20082;-79
2023/06/25 10:59:35;;;;;;;3.30;2.90;;;;;;;;;;4724324;30;20144;-77
2023/06/25 11:02:16;;;;;;;3.40;3.20;;;;;;;;;;4714972;30;20052;-78
2023/06/25 11:04:49;;;;;;;3.17;2.80;;;;;;;;;;4725148;30;20623;-77
2023/06/25 11:07:21;;;;;;;2.53;2.42;;;;;;;;;;4726877;30;20321;-77
2023/06/25 11:09:54;;;;;;;2.78;2.67;;;;;;;;;;4721292;30;20052;-79
2023/06/25 11:12:22;;;;;;;2.88;2.70;;;;;;;;;;4721523;30;20063;-77
2023/06/25 11:14:49;;;;;;;3.00;2.80;;;;;;;;;;4723755;30;20131;-77
2023/06/25 11:17:17;;;;;;;2.97;2.75;;;;;;;;;;4725427;30;20118;-77
2023/06/25 11:19:50;;;;;;;2.90;2.80;;;;;;;;;;4720010;30;20064;-78
2023/06/25 11:22:18;;;;;;;2.70;2.60;;;;;;;;;;4718981;30;20063;-80
2023/06/25 11:24:45;;;;;;;2.70;2.50;;;;;;;;;;4722123;30;20052;-76
2023/06/25 11:27:14;;;;;;;2.80;2.70;;;;;;;;;;4723435;30;20060;-79
2023/06/25 11:29:42;;;;;;;3.03;2.83;;;;;;;;;;4720602;30;20436;-76
2023/06/25 11:32:11;;;;;;;2.95;2.80;;;;;;;;;;4726431;30;20052;-77
2023/06/25 11:34:46;;;;;;;3.17;2.97;;;;;;;;;;4717540;30;20057;-77
2023/06/25 11:37:15;;;;;;;3.05;2.85;;;;;;;;;;4734002;30;20140;-79
2023/06/25 11:39:49;;;;;;;3.38;3.17;;;;;;;;;;4718203;30;20084;-79
2023/06/25 11:42:17;;;;;;;3.00;2.80;;;;;;;;;;4721748;30;20498;-77
2023/06/25 11:44:46;;;;;;;3.20;2.90;;;;;;;;;;4721964;30;20913;-77
2023/06/25 11:47:15;;;;;;;2.50;2.30;;;;;;;;;;4720273;30;20048;-80
2023/06/25 11:49:52;;;;;;;2.13;2.03;;;;;;;;;;4725133;30;20058;-78
2023/06/25 11:52:22;;;;;;;2.53;2.42;;;;;;;;;;4722976;30;20311;-80
2023/06/25 11:54:49;;;;;;;2.38;2.28;;;;;;;;;;4718227;30;20061;-78
2023/06/25 11:57:17;;;;;;;2.67;2.47;;;;;;;;;;4724313;30;20394;-77
2023/06/25 11:59:45;;;;;;;2.50;2.40;;;;;;;;;;4728489;30;20152;-77
2023/06/25 12:02:13;;;;;;;2.45;2.35;;;;;;;;;;4725865;30;20053;-77
2023/06/25 12:04:40;;;;;;;2.30;2.20;;;;;;;;;;4726022;30;20060;-79
2023/06/25 12:07:08;;;;;;;2.40;2.30;;;;;;;;;;4730139;30;20053;-77
2023/06/25 12:09:35;;;;;;;2.42;2.33;;;;;;;;;;4730001;30;20060;-77
2023/06/25 12:12:03;;;;;;;2.53;2.42;;;;;;;;;;4728556;30;20056;-80
2023/06/25 12:14:32;;;;;;;2.80;2.60;;;;;;;;;;4721961;30;20068;-78
2023/06/25 12:16:59;;;;;;;2.50;2.40;;;;;;;;;;4726526;30;20059;-77
2023/06/25 12:19:27;;;;;;;2.28;2.17;;;;;;;;;;4741984;30;20061;-78
2023/06/25 12:21:56;;;;;;;2.70;2.50;;;;;;;;;;4728885;30;20056;-78
2023/06/25 12:24:23;;;;;;;2.38;2.28;;;;;;;;;;4728368;30;20591;-77
2023/06/25 12:26:51;;;;;;;2.58;2.45;;;;;;;;;;4728589;30;20052;-78
2023/06/25 12:29:18;;;;;;;2.45;2.35;;;;;;;;;;4728371;30;20052;-78
2023/06/25 12:31:45;;;;;;;2.70;2.53;;;;;;;;;;4725329;30;20049;-78
2023/06/25 12:34:13;;;;;;;2.60;2.42;;;;;;;;;;4718068;30;20064;-78
2023/06/25 12:36:40;;;;;;;2.70;2.60;;;;;;;;;;4725660;30;20052;-78
2023/06/25 12:39:08;;;;;;;2.08;1.98;;;;;;;;;;4724604;30;20048;-78
2023/06/25 12:41:35;;;;;;;2.30;2.20;;;;;;;;;;4729719;30;20056;-78
2023/06/25 12:44:03;;;;;;;2.33;2.22;;;;;;;;;;4728011;30;20294;-78
2023/06/25 12:46:30;;;;;;;2.33;2.22;;;;;;;;;;4726653;30;20122;-78
2023/06/25 12:48:58;;;;;;;2.20;2.10;;;;;;;;;;4742920;30;20055;-79
2023/06/25 12:51:29;;;;;;;2.20;2.10;;;;;;;;;;4729441;30;20060;-78
2023/06/25 12:53:59;;;;;;;2.45;2.35;;;;;;;;;;4726084;30;20063;-78
2023/06/25 12:56:27;;;;;;;2.40;2.30;;;;;;;;;;4725704;30;20052;-77
2023/06/25 12:58:54;;;;;;;2.45;2.35;;;;;;;;;;4722535;30;20076;-76
2023/06/25 13:01:24;;;;;;;2.58;2.38;;;;;;;;;;4718360;30;20049;-78
2023/06/25 13:03:51;;;;;;;2.10;2.10;;;;;;;;;;4744606;24;20732;-84
2023/06/25 13:06:20;;;;;;;2.50;2.40;;;;;;;;;;4747578;30;20068;-84
2023/06/25 13:08:48;;;;;;;2.50;2.40;;;;;;;;;;4746669;30;20054;-85
2023/06/25 13:11:16;;;;;;;2.60;2.40;;;;;;;;;;4747046;30;20789;-84
2023/06/25 13:13:43;;;;;;;2.50;2.40;;;;;;;;;;4746153;30;20044;-85
2023/06/25 13:16:12;;;;;;;2.65;2.47;;;;;;;;;;4748007;30;20044;-84
2023/06/25 13:18:43;;;;;;;2.40;2.20;;;;;;;;;;4748875;30;20093;-87
2023/06/25 13:21:17;;;;;;;2.70;2.60;;;;;;;;;;4746885;30;20093;-85
2023/06/25 13:23:50;;;;;;;2.47;2.38;;;;;;;;;;4745585;30;20060;-86
2023/06/25 13:26:20;;;;;;;;;;;;;;;;;;4750729;30;20052;-84
2023/06/25 13:28:48;;;;;;;1.88;1.85;;;;;;;;;;4747617;30;19983;-84
2023/06/25 13:31:15;;;;;;;2.40;2.30;;;;;;;;;;4746575;30;20091;-84
2023/06/25 13:33:43;;;;;;;2.40;2.30;;;;;;;;;;4738970;30;20138;-84
2023/06/25 13:36:10;;;;;;;2.17;2.08;;;;;;;;;;4742043;30;20045;-84
2023/06/25 13:38:40;;;;;;;2.00;1.90;;;;;;;;;;4746388;30;20048;-85
2023/06/25 13:41:07;;;;;;;2.00;1.95;;;;;;;;;;4742368;30;20052;-83
2023/06/25 13:43:35;;;;;;;2.25;2.15;;;;;;;;;;4746726;30;20059;-84
2023/06/25 13:46:03;;;;;;;2.33;2.20;;;;;;;;;;4738317;30;20059;-84
2023/06/25 13:48:30;;;;;;;2.30;2.20;;;;;;;;;;4746482;30;20419;-85
2023/06/25 13:51:00;;;;;;;2.13;2.05;;;;;;;;;;4743391;30;20048;-85
2023/06/25 13:53:28;;;;;;;2.10;2.00;;;;;;;;;;4742033;30;20055;-85
2023/06/25 13:56:05;;;;;;;2.20;2.10;;;;;;;;;;4743641;30;20162;-84
2023/06/25 13:58:32;;;;;;;2.30;2.10;;;;;;;;;;4751180;30;20199;-84
2023/06/25 14:01:12;;;;;;;2.30;2.20;;;;;;;;;;4743793;30;20076;-88
2023/06/25 14:04:12;;;;;;;2.67;2.47;;;;;;;;;;4748325;30;20052;-84
2023/06/25 14:06:40;;;;;;;2.20;2.10;;;;;;;;;;4757655;30;20071;-84
2023/06/25 14:09:08;;;;;;;2.35;2.25;;;;;;;;;;4745675;30;20412;-84
2023/06/25 14:11:35;;;;;;;2.47;2.38;;;;;;;;;;4745840;30;20142;-85
2023/06/25 14:14:03;;;;;;;2.20;2.10;;;;;;;;;;4806488;24;20184;-79
2023/06/25 14:16:32;;;;;;;2.80;2.10;;;;;;;;;;4784573;29;20166;-78
2023/06/25 14:19:00;;;;;;;2.55;2.40;;;;;;;;;;4779320;30;20058;-79
2023/06/25 14:21:28;;;;;;;2.22;2.13;;;;;;;;;;4778306;30;20526;-79
2023/06/25 14:23:55;;;;;;;2.40;2.30;;;;;;;;;;4781049;29;20071;-79
2023/06/25 14:26:23;;;;;;;2.08;1.98;;;;;;;;;;4793456;29;20474;-79
2023/06/25 14:28:51;;;;;;;2.50;2.40;;;;;;;;;;4795915;29;20149;-78
2023/06/25 14:31:37;;;;;;;2.47;2.38;;;;;;;;;;4792244;30;20054;-77
2023/06/25 14:34:05;;;;;;;2.28;2.17;;;;;;;;;;4792316;30;20456;-78
2023/06/25 14:36:33;;;;;;;2.28;2.08;;;;;;;;;;4793206;30;20044;-78
2023/06/25 14:39:01;;;;;;;2.20;2.10;;;;;;;;;;4792374;30;20482;-79
2023/06/25 14:41:29;;;;;;;2.28;2.10;;;;;;;;;;4780861;30;20079;-79
2023/06/25 14:43:56;;;;;;;2.30;2.17;;;;;;;;;;4784054;29;20050;-79
2023/06/25 14:46:24;;;;;;;2.22;2.03;;;;;;;;;;4781678;29;20130;-79
2023/06/25 14:48:51;;;;;;;2.45;2.28;;;;;;;;;;4782945;30;20039;-79
2023/06/25 14:51:20;;;;;;;2.10;2.00;;;;;;;;;;4782797;30;20131;-79